Brugge, Belgium
Current Conditions -  °F | °C
As of 3:20 PM on Sunday 21 Dec 2014 (Local Time) from EBOS Reporting Station
Broken Clouds Broken Clouds  
Wind Chill: 39°   Ceiling: 3000
Heat Index: 46°   Visibility: 6mi
Dew Point: 46°   Wind: 17mph
Humidity: 100%   Direction: 250°WSW
Pressure: 30.3"   Gusts: NA
Location:  51.21°N, 3.22°E
Report Text: EBOS 211420Z 25015KT 9999 FEW004 SCT010 BKN030 08/08 Q1026 RERA REDZ TEMPO 3000 RADZ BR BKN012
Loading
Personal Weather Stations






























Interactive Weather Map New forecast layout! Learn more

10-Day Weather Forecast

Advertisements
Track Severe Weather on mobile